Time;durP1;ratioP1;P1;durP2;ratioP2;P2;SDS_P1;SDS_P2;PMS_P1;PMS_P2;Temp;Humidity;BMP_temperature;BMP_pressure;BME280_temperature;BME280_humidity;BME280_pressure;Samples;Min_cycle;Max_cycle;Signal;HPM_P1;HPM_P2
2022/07/19 00:00:58;;;;;;;2.13;1.83;;;;;;;21.35;41.25;98937.22;4992872;28;20529;-47
2022/07/19 00:03:24;;;;;;;3.03;1.97;;;;;;;21.39;41.24;98930.47;4992642;28;20213;-47
2022/07/19 00:05:52;;;;;;;4.07;2.20;;;;;;;21.41;41.72;98926.78;4975505;28;20200;-47
2022/07/19 00:08:20;;;;;;;2.90;2.00;;;;;;;21.37;41.63;98919.25;4993107;28;20266;-47
2022/07/19 00:10:47;;;;;;;3.67;2.10;;;;;;;21.44;40.56;98927.19;4993129;28;20199;-47
2022/07/19 00:13:14;;;;;;;2.53;1.90;;;;;;;21.59;41.24;98926.06;4992949;28;20322;-47
2022/07/19 00:15:41;;;;;;;3.73;2.13;;;;;;;21.61;40.59;98914.19;4993004;28;20704;-47
2022/07/19 00:18:07;;;;;;;5.07;2.13;;;;;;;21.59;40.82;98910.13;4993275;28;20241;-46
2022/07/19 00:20:34;;;;;;;6.23;2.40;;;;;;;21.59;40.75;98916.25;4993309;28;20213;-47
2022/07/19 00:23:01;;;;;;;3.27;2.40;;;;;;;21.63;40.92;98917.47;5018134;28;20224;-47
2022/07/19 00:25:29;;;;;;;4.90;2.37;;;;;;;21.55;40.45;98914.25;5026509;28;20260;-46
2022/07/19 00:27:56;;;;;;;5.87;2.13;;;;;;;21.55;40.56;98919.56;5021323;28;20195;-47
2022/07/19 00:30:23;;;;;;;5.23;2.43;;;;;;;21.54;40.43;98918.72;5014957;28;20204;-47
2022/07/19 00:32:50;;;;;;;3.73;2.07;;;;;;;21.51;41.18;98924.47;5020331;28;20209;-47
2022/07/19 00:35:18;;;;;;;5.13;2.40;;;;;;;21.53;40.78;98928.56;5028967;28;20218;-47
2022/07/19 00:37:45;;;;;;;7.97;2.37;;;;;;;21.53;40.76;98923.25;5032347;28;20276;-47
2022/07/19 00:40:13;;;;;;;5.77;2.53;;;;;;;21.54;40.67;98926.69;5014215;28;20207;-47
2022/07/19 00:42:41;;;;;;;2.37;1.87;;;;;;;21.58;41.09;98916.47;5031872;28;20697;-47
2022/07/19 00:45:10;;;;;;;2.60;2.20;;;;;;;21.63;40.69;98914.00;5032312;28;20239;-47
2022/07/19 00:47:37;;;;;;;3.77;2.00;;;;;;;21.74;40.06;98923.09;5032219;28;20188;-47
2022/07/19 00:50:05;;;;;;;2.80;2.30;;;;;;;21.82;39.95;98918.31;5032116;28;20191;-47
2022/07/19 00:52:34;;;;;;;6.43;2.60;;;;;;;21.87;39.69;98924.84;5032952;28;20258;-47
2022/07/19 00:55:01;;;;;;;3.23;2.17;;;;;;;21.86;40.01;98924.03;5035901;28;20204;-47
2022/07/19 00:57:32;;;;;;;3.07;2.10;;;;;;;21.81;40.91;98922.00;5036196;28;20215;-47
2022/07/19 01:00:00;;;;;;;2.50;2.10;;;;;;;21.75;40.65;98917.56;5036040;28;20186;-47
2022/07/19 01:02:29;;;;;;;3.57;1.97;;;;;;;21.74;41.03;98923.09;5035796;28;20624;-47
2022/07/19 01:04:56;;;;;;;3.70;2.30;;;;;;;21.68;41.96;98922.94;5035714;28;20184;-47
2022/07/19 01:07:23;;;;;;;2.57;2.20;;;;;;;21.60;42.11;98920.53;5035973;28;20666;-47
2022/07/19 01:09:51;;;;;;;2.10;1.90;;;;;;;21.51;42.44;98919.16;5035635;28;20574;-47
2022/07/19 01:12:20;;;;;;;3.80;2.10;;;;;;;21.48;42.87;98924.91;5035571;28;20203;-47
2022/07/19 01:14:47;;;;;;;2.80;2.20;;;;;;;21.43;42.70;98920.25;5017852;28;20216;-47
2022/07/19 01:17:15;;;;;;;3.90;2.00;;;;;;;21.33;42.60;98918.03;5035807;28;20184;-47
2022/07/19 01:19:43;;;;;;;5.03;2.30;;;;;;;21.36;42.00;98917.63;4998785;28;20201;-47
2022/07/19 01:22:11;;;;;;;2.93;2.20;;;;;;;21.42;41.17;98915.13;5000100;28;20205;-47
2022/07/19 01:24:38;;;;;;;2.93;2.20;;;;;;;21.49;40.49;98914.06;4999399;28;20182;-47
2022/07/19 01:27:05;;;;;;;5.00;2.43;;;;;;;21.54;40.95;98924.03;4996967;28;20647;-47
2022/07/19 01:29:35;;;;;;;3.77;1.90;;;;;;;21.53;40.97;98911.78;4990966;28;20239;-47
2022/07/19 01:32:02;;;;;;;2.23;1.87;;;;;;;21.47;40.73;98915.31;4992008;28;20195;-47
2022/07/19 01:34:30;;;;;;;7.77;2.10;;;;;;;21.53;40.69;98919.75;4992308;28;20212;-47
2022/07/19 01:36:57;;;;;;;2.30;2.10;;;;;;;21.51;40.02;98914.69;4996023;28;20194;-49
2022/07/19 01:39:25;;;;;;;5.53;2.17;;;;;;;21.58;39.75;98911.97;4999694;28;20203;-49
2022/07/19 01:41:52;;;;;;;10.90;2.40;;;;;;;21.64;39.74;98910.31;4993477;28;20655;-50
2022/07/19 01:44:19;;;;;;;4.73;2.33;;;;;;;21.56;40.28;98907.91;4996091;28;20713;-50
2022/07/19 01:46:46;;;;;;;4.30;1.80;;;;;;;21.52;39.84;98911.00;4995461;28;20217;-49
2022/07/19 01:49:12;;;;;;;4.80;2.03;;;;;;;21.53;40.38;98909.13;4996427;28;20246;-50
2022/07/19 01:51:39;;;;;;;3.50;2.23;;;;;;;21.47;40.47;98905.50;4994938;28;20612;-47
2022/07/19 01:54:06;;;;;;;4.10;1.93;;;;;;;21.43;40.29;98904.31;5003551;28;20236;-47
2022/07/19 01:56:53;;;;;;;4.27;2.10;;;;;;;21.43;40.70;98900.81;4990290;28;20273;-47
2022/07/19 01:59:20;;;;;;;4.23;2.43;;;;;;;21.35;40.71;98900.06;4974658;28;20209;-46
2022/07/19 02:01:48;;;;;;;3.07;2.20;;;;;;;21.39;40.83;98893.28;4981793;28;20547;-47
2022/07/19 02:04:14;;;;;;;4.73;2.10;;;;;;;21.39;40.58;98895.16;4991630;28;20224;-47
2022/07/19 02:06:41;;;;;;;2.40;2.20;;;;;;;21.45;40.44;98883.66;4998938;28;20190;-47
2022/07/19 02:09:09;;;;;;;4.07;2.23;;;;;;;21.49;40.09;98887.53;4994587;28;20194;-47
2022/07/19 02:11:35;;;;;;;5.07;2.20;;;;;;;21.47;40.36;98876.28;4998225;28;20254;-47
2022/07/19 02:14:04;;;;;;;3.50;2.40;;;;;;;21.44;40.17;98875.91;4993821;28;20265;-47
2022/07/19 02:16:31;;;;;;;3.67;2.10;;;;;;;21.41;40.54;98876.31;4992133;28;20678;-47
2022/07/19 02:18:58;;;;;;;6.10;2.47;;;;;;;21.44;39.95;98867.94;4993346;28;20185;-47
2022/07/19 02:21:43;;;;;;;2.80;2.00;;;;;;;21.44;39.88;98866.09;4994083;28;20202;-47
2022/07/19 02:24:10;;;;;;;3.83;2.10;;;;;;;21.45;39.95;98864.25;4995692;28;20298;-47
2022/07/19 02:26:37;;;;;;;3.30;1.90;;;;;;;21.43;40.26;98861.81;4989760;28;20197;-46
2022/07/19 02:29:06;;;;;;;4.30;2.10;;;;;;;21.41;40.14;98855.91;4990414;28;20195;-47
2022/07/19 02:31:34;;;;;;;3.17;2.03;;;;;;;21.47;40.22;98862.19;4994679;28;20201;-47
2022/07/19 02:34:01;;;;;;;2.67;2.27;;;;;;;21.43;40.03;98855.69;4991845;28;20217;-47
2022/07/19 02:36:28;;;;;;;2.73;2.20;;;;;;;21.49;40.25;98850.34;4979960;28;20226;-47
2022/07/19 02:38:55;;;;;;;3.70;2.10;;;;;;;21.49;40.01;98854.81;4997659;28;20234;-47
2022/07/19 02:41:22;;;;;;;5.10;2.00;;;;;;;21.49;39.83;98850.34;4989155;28;20204;-47
2022/07/19 02:43:49;;;;;;;5.27;2.37;;;;;;;21.47;39.77;98848.91;4996980;28;20211;-47
2022/07/19 02:46:18;;;;;;;3.77;2.00;;;;;;;21.53;39.85;98845.38;4999828;28;20201;-47
2022/07/19 02:48:45;;;;;;;5.70;2.17;;;;;;;21.71;39.35;98839.38;4990613;28;20530;-47
2022/07/19 02:51:12;;;;;;;11.27;2.53;;;;;;;21.71;39.39;98850.00;4989009;28;20183;-47
2022/07/19 02:53:39;;;;;;;8.63;2.47;;;;;;;21.68;39.52;98842.44;4999543;28;20217;-47
2022/07/19 02:56:06;;;;;;;6.00;2.30;;;;;;;21.66;39.71;98844.50;4989788;28;20680;-47
2022/07/19 02:58:33;;;;;;;3.03;2.30;;;;;;;21.64;39.34;98847.38;4990942;28;20190;-47
2022/07/19 03:01:00;;;;;;;2.87;2.13;;;;;;;21.69;39.43;98846.72;4996495;28;20202;-47
2022/07/19 03:03:47;;;;;;;2.90;2.27;;;;;;;21.71;39.05;98849.16;4998656;28;20258;-47
2022/07/19 03:06:15;;;;;;;4.17;1.93;;;;;;;21.70;38.92;98847.53;4992952;28;20195;-47
2022/07/19 03:08:42;;;;;;;2.73;2.20;;;;;;;21.71;39.23;98846.50;4995465;28;20572;-47
2022/07/19 03:11:09;;;;;;;5.73;2.03;;;;;;;21.65;39.15;98849.00;4992101;28;20194;-47
2022/07/19 03:13:36;;;;;;;3.50;2.27;;;;;;;21.65;38.95;98849.00;4997766;28;20221;-46
2022/07/19 03:16:03;;;;;;;3.47;2.33;;;;;;;21.68;38.94;98851.22;4994434;28;20236;-47
2022/07/19 03:18:31;;;;;;;6.23;2.33;;;;;;;21.70;39.31;98844.88;4972539;28;20200;-47
2022/07/19 03:20:59;;;;;;;3.37;2.00;;;;;;;21.62;39.24;98838.81;4990905;28;20270;-47
2022/07/19 03:23:27;;;;;;;2.23;2.03;;;;;;;21.62;39.30;98837.97;4991757;28;20284;-47
2022/07/19 03:25:53;;;;;;;2.20;2.00;;;;;;;21.60;39.10;98829.41;4988218;28;20190;-47
2022/07/19 03:28:21;;;;;;;4.60;2.27;;;;;;;21.74;38.88;98836.25;4999047;28;20217;-47
2022/07/19 03:30:48;;;;;;;2.57;1.93;;;;;;;21.80;38.56;98837.22;4991606;28;20276;-47
2022/07/19 03:33:15;;;;;;;4.27;1.97;;;;;;;21.81;38.94;98838.84;4990095;28;20223;-47
2022/07/19 03:35:45;;;;;;;4.20;2.40;;;;;;;21.82;38.81;98837.81;4989546;28;20218;-47
2022/07/19 03:38:31;;;;;;;5.00;2.00;;;;;;;21.81;38.95;98838.84;4992546;28;20206;-47
2022/07/19 03:40:58;;;;;;;2.40;2.00;;;;;;;21.76;38.84;98841.34;4988023;28;20218;-48
2022/07/19 03:43:25;;;;;;;4.53;2.63;;;;;;;21.79;39.05;98841.72;4990598;28;20230;-47
2022/07/19 03:45:51;;;;;;;2.97;2.10;;;;;;;21.70;39.16;98844.88;4994457;28;20194;-47
2022/07/19 03:48:21;;;;;;;3.63;2.10;;;;;;;21.55;40.12;98842.53;4973230;28;20264;-47
2022/07/19 03:50:49;;;;;;;6.70;2.03;;;;;;;21.40;41.25;98843.66;4992838;28;20261;-47
2022/07/19 03:53:16;;;;;;;2.90;1.97;;;;;;;21.26;42.03;98844.78;4989532;28;20585;-46
2022/07/19 03:55:42;;;;;;;2.23;2.00;;;;;;;21.11;43.13;98853.88;4993405;28;20267;-47
2022/07/19 03:58:09;;;;;;;2.83;2.10;;;;;;;20.99;43.31;98850.28;4991563;28;20195;-47
2022/07/19 04:00:37;;;;;;;3.37;2.10;;;;;;;20.96;43.84;98856.00;4975462;28;20213;-47
2022/07/19 04:03:03;;;;;;;3.93;2.30;;;;;;;20.85;43.92;98850.34;4996546;28;20678;-47
2022/07/19 04:05:30;;;;;;;5.67;1.93;;;;;;;20.77;43.46;98850.56;4989129;28;20201;-47
2022/07/19 04:07:58;;;;;;;3.27;1.97;;;;;;;20.83;43.19;98852.38;4995103;28;20641;-47
2022/07/19 04:10:25;;;;;;;4.63;2.10;;;;;;;20.74;43.44;98854.47;4991180;28;20209;-47
2022/07/19 04:12:52;;;;;;;2.80;2.37;;;;;;;20.65;43.82;98848.59;4990108;28;20256;-47
2022/07/19 04:15:20;;;;;;;4.37;1.80;;;;;;;20.60;43.96;98858.19;4993695;28;20274;-47
2022/07/19 04:17:46;;;;;;;3.03;1.97;;;;;;;20.55;44.71;98850.88;4988441;28;20208;-47
2022/07/19 04:20:14;;;;;;;2.87;2.20;;;;;;;20.56;44.06;98855.16;4988856;28;20193;-47
2022/07/19 04:22:41;;;;;;;3.73;2.10;;;;;;;20.58;43.93;98858.41;4988466;28;20236;-48
2022/07/19 04:25:10;;;;;;;4.13;2.27;;;;;;;20.61;44.41;98852.69;4990369;28;20597;-47
2022/07/19 04:27:37;;;;;;;4.03;2.13;;;;;;;20.63;45.24;98855.94;4994921;28;20773;-47
2022/07/19 04:30:05;;;;;;;2.70;2.10;;;;;;;20.63;45.48;98855.94;4993616;28;20256;-46
2022/07/19 04:32:33;;;;;;;3.10;1.70;;;;;;;20.61;45.73;98855.34;4946941;28;20692;-47
2022/07/19 04:35:00;;;;;;;3.63;2.27;;;;;;;20.65;45.17;98859.22;4995607;28;20283;-47
2022/07/19 04:37:27;;;;;;;5.93;2.00;;;;;;;20.66;45.45;98865.31;4998748;28;20233;-47
2022/07/19 04:39:54;;;;;;;5.57;2.10;;;;;;;20.64;45.35;98867.34;4994060;28;20233;-47
2022/07/19 04:42:22;;;;;;;3.67;2.30;;;;;;;20.56;45.56;98867.59;4990391;28;20712;-47
2022/07/19 04:44:50;;;;;;;2.23;2.03;;;;;;;20.51;46.69;98873.53;4985803;28;20287;-47
2022/07/19 04:47:17;;;;;;;6.90;2.13;;;;;;;20.43;47.66;98879.06;4997437;28;20600;-47
2022/07/19 04:49:44;;;;;;;5.20;1.97;;;;;;;20.34;47.69;98881.94;4995583;28;20283;-47
2022/07/19 04:52:11;;;;;;;7.33;3.00;;;;;;;20.22;47.79;98875.66;4976660;28;20207;-47
2022/07/19 04:54:38;;;;;;;5.27;2.57;;;;;;;20.10;48.81;98885.25;4994289;28;20209;-47
2022/07/19 04:57:04;;;;;;;9.73;2.60;;;;;;;19.98;49.39;98877.13;4995203;28;20223;-47
2022/07/19 04:59:33;;;;;;;3.93;2.57;;;;;;;19.84;50.84;98879.78;4999984;28;20202;-47
2022/07/19 05:02:00;;;;;;;4.17;2.97;;;;;;;19.76;50.51;98880.78;4988399;28;20645;-47
2022/07/19 05:04:27;;;;;;;5.67;2.90;;;;;;;19.66;51.88;98880.38;4995732;28;20226;-47
2022/07/19 05:06:56;;;;;;;4.17;2.40;;;;;;;19.59;51.92;98872.44;4998022;28;20193;-46
2022/07/19 05:09:23;;;;;;;3.23;2.13;;;;;;;19.56;52.71;98877.34;4995626;28;20204;-46
2022/07/19 05:11:51;;;;;;;4.13;2.30;;;;;;;19.53;52.23;98875.91;4995661;28;20192;-47
2022/07/19 05:14:19;;;;;;;3.27;2.20;;;;;;;19.50;52.51;98878.94;4998112;28;20264;-48
2022/07/19 05:16:49;;;;;;;3.63;2.00;;;;;;;19.49;52.35;98879.16;4998248;28;20229;-47
2022/07/19 05:19:17;;;;;;;6.87;2.57;;;;;;;19.46;52.85;98877.72;4995518;28;20264;-47
2022/07/19 05:21:43;;;;;;;5.40;2.37;;;;;;;19.46;52.55;98878.56;4999223;28;20205;-47
2022/07/19 05:24:10;;;;;;;4.67;2.30;;;;;;;19.49;52.86;98879.16;4992686;28;20301;-47
2022/07/19 05:26:37;;;;;;;4.50;2.30;;;;;;;19.48;53.11;98878.34;4971065;28;20199;-47
2022/07/19 05:29:04;;;;;;;2.77;2.13;;;;;;;19.50;53.59;98883.44;4997427;28;20188;-47
2022/07/19 05:31:31;;;;;;;2.93;2.20;;;;;;;19.51;53.46;98887.72;4992949;28;20195;-47
2022/07/19 05:33:59;;;;;;;10.63;2.70;;;;;;;19.51;53.03;98888.53;4997414;28;20251;-47
2022/07/19 05:36:26;;;;;;;4.13;2.33;;;;;;;19.54;53.06;98887.31;4995483;28;20229;-47
2022/07/19 05:38:53;;;;;;;4.17;2.67;;;;;;;19.55;52.70;98883.66;4995231;28;20220;-46
2022/07/19 05:41:21;;;;;;;2.83;2.20;;;;;;;19.58;52.07;98885.91;5002740;28;20211;-47
2022/07/19 05:43:49;;;;;;;1.97;1.83;;;;;;;19.65;51.95;98883.22;5004568;28;20295;-47
2022/07/19 05:46:17;;;;;;;3.47;2.10;;;;;;;19.72;51.45;98884.06;5002851;28;20620;-47
2022/07/19 05:48:44;;;;;;;3.27;2.23;;;;;;;19.79;52.25;98886.69;5002316;28;20219;-48
2022/07/19 05:51:13;;;;;;;2.30;2.00;;;;;;;19.95;50.43;98886.28;4990883;28;20747;-47
2022/07/19 05:53:40;;;;;;;5.10;2.53;;;;;;;20.03;51.20;98887.94;4992759;28;20260;-47
2022/07/19 05:56:08;;;;;;;5.17;2.33;;;;;;;20.15;50.49;98886.25;5001892;28;20220;-47
2022/07/19 05:58:35;;;;;;;3.10;2.57;;;;;;;20.34;49.71;98889.91;5001952;28;20207;-47
2022/07/19 06:01:18;;;;;;;3.70;2.50;;;;;;;20.60;49.17;98884.72;4995570;28;20196;-48
2022/07/19 06:03:47;;;;;;;2.27;2.07;;;;;;;20.90;47.54;98885.00;4997098;28;20213;-48
2022/07/19 06:06:16;;;;;;;3.77;2.23;;;;;;;21.13;48.21;98886.31;5005095;28;20227;-48
2022/07/19 06:08:43;;;;;;;4.10;2.30;;;;;;;21.33;47.71;98886.19;4979939;28;20517;-48
2022/07/19 06:11:10;;;;;;;5.30;2.30;;;;;;;21.58;46.46;98889.91;4993237;28;20200;-48
2022/07/19 06:13:37;;;;;;;2.23;1.80;;;;;;;21.81;47.04;98897.31;4998092;28;20272;-47
2022/07/19 06:16:05;;;;;;;12.67;3.60;;;;;;;21.97;48.89;98893.25;4991964;28;20220;-48
2022/07/19 06:18:35;;;;;;;9.67;3.70;;;;;;;22.16;49.12;98898.63;4996032;28;20608;-49
2022/07/19 06:21:02;;;;;;;14.57;4.00;;;;;;;22.20;49.58;98900.63;5003533;28;20203;-47
2022/07/19 06:23:30;;;;;;;7.27;4.17;;;;;;;22.27;49.65;98904.00;4974885;28;20225;-48
2022/07/19 06:25:57;;;;;;;9.63;4.73;;;;;;;22.31;49.30;98909.72;4991201;28;20201;-48
2022/07/19 06:28:25;;;;;;;9.53;5.13;;;;;;;22.19;49.90;98914.13;4993846;28;20203;-48
2022/07/19 06:30:52;;;;;;;6.37;4.67;;;;;;;22.26;50.04;98914.88;4997739;28;20293;-48
2022/07/19 06:33:19;;;;;;;5.73;4.50;;;;;;;22.45;49.83;98912.25;4994557;28;20223;-49
2022/07/19 06:35:46;;;;;;;8.90;4.37;;;;;;;22.51;49.16;98906.84;4989811;28;20186;-48
2022/07/19 06:38:13;;;;;;;9.90;4.23;;;;;;;22.69;49.55;98905.22;4980948;28;20214;-48
2022/07/19 06:40:41;;;;;;;9.00;4.10;;;;;;;22.92;49.69;98909.03;5005421;28;20200;-48
2022/07/19 06:43:09;;;;;;;7.90;4.40;;;;;;;23.07;49.06;98905.97;4997161;28;20573;-47
2022/07/19 06:45:37;;;;;;;5.67;4.10;;;;;;;23.26;48.38;98904.09;4990376;28;20276;-48
2022/07/19 06:48:04;;;;;;;9.57;3.97;;;;;;;23.44;48.29;98904.00;4997206;28;20655;-49
2022/07/19 06:50:31;;;;;;;5.97;3.97;;;;;;;23.66;48.32;98911.47;4989687;28;20199;-48
2022/07/19 06:52:58;;;;;;;5.60;3.50;;;;;;;23.81;47.22;98903.03;4992641;28;20214;-48
2022/07/19 06:55:26;;;;;;;5.37;3.80;;;;;;;23.93;47.07;98897.69;4989741;28;20208;-48
2022/07/19 06:57:54;;;;;;;5.20;4.00;;;;;;;24.09;47.17;98890.06;4996793;28;20215;-48
2022/07/19 07:00:21;;;;;;;7.00;3.23;;;;;;;24.25;46.67;98888.53;4995403;28;20189;-48
2022/07/19 07:02:48;;;;;;;6.87;3.40;;;;;;;24.41;45.94;98892.31;4993913;28;20213;-48
2022/07/19 07:05:15;;;;;;;14.80;4.60;;;;;;;24.46;45.31;98884.44;4994278;28;20485;-48
2022/07/19 07:07:42;;;;;;;12.10;5.03;;;;;;;24.46;45.74;98889.78;4998636;28;20185;-48
2022/07/19 07:10:10;;;;;;;15.50;4.87;;;;;;;24.42;45.42;98886.78;4998820;28;20266;-48
2022/07/19 07:12:37;;;;;;;7.90;4.30;;;;;;;24.53;45.51;98884.31;4997200;28;20220;-48
2022/07/19 07:15:07;;;;;;;6.23;4.23;;;;;;;24.49;45.75;98873.28;5006540;28;20192;-48
2022/07/19 07:17:34;;;;;;;5.83;4.20;;;;;;;24.49;44.90;98877.81;5006274;28;20222;-48
2022/07/19 07:20:01;;;;;;;7.37;4.40;;;;;;;24.55;44.92;98874.22;5003720;28;20191;-48
2022/07/19 07:22:28;;;;;;;7.03;4.27;;;;;;;24.68;43.88;98881.94;5001769;28;20619;-48
2022/07/19 07:24:54;;;;;;;6.75;4.00;;;;;;;24.79;42.72;98885.66;4991581;28;20198;-48
2022/07/19 07:27:22;;;;;;;13.60;4.00;;;;;;;24.82;42.41;98879.84;4992480;28;20662;-48
2022/07/19 07:29:50;;;;;;;7.60;4.33;;;;;;;24.94;43.22;98878.97;4977074;28;20212;-48
2022/07/19 07:32:18;;;;;;;10.23;4.20;;;;;;;25.10;43.80;98883.53;4999404;28;20259;-48
2022/07/19 07:34:45;;;;;;;10.00;4.87;;;;;;;25.23;43.92;98877.06;4997340;28;20195;-48
2022/07/19 07:37:12;;;;;;;11.53;4.17;;;;;;;25.25;44.07;98884.88;4994270;28;20217;-48
2022/07/19 07:39:44;;;;;;;12.27;4.53;;;;;;;25.03;44.31;98881.00;4979027;28;20200;-48
2022/07/19 07:42:11;;;;;;;7.25;4.47;;;;;;;25.25;44.46;98888.34;4996148;28;20795;-48
2022/07/19 07:44:38;;;;;;;10.43;4.40;;;;;;;25.35;43.41;98879.69;4998363;28;20200;-48
2022/07/19 07:47:08;;;;;;;10.07;3.80;;;;;;;25.20;44.05;98882.91;4999291;28;20196;-48
2022/07/19 07:49:36;;;;;;;8.37;4.00;;;;;;;25.31;44.97;98887.38;4989437;28;20232;-48
2022/07/19 07:52:04;;;;;;;7.80;3.87;;;;;;;25.46;43.79;98891.38;4996581;28;20228;-48
2022/07/19 07:54:31;;;;;;;10.90;3.90;;;;;;;25.44;43.67;98898.81;4996807;28;20198;-48
2022/07/19 07:56:58;;;;;;;8.63;4.00;;;;;;;25.41;43.96;98899.28;4997051;28;20695;-48
2022/07/19 07:59:25;;;;;;;6.60;4.00;;;;;;;25.43;43.63;98891.84;4998740;28;20201;-49
2022/07/19 08:01:52;;;;;;;7.80;3.87;;;;;;;25.54;43.46;98887.50;4995735;28;20669;-48
2022/07/19 08:04:20;;;;;;;10.85;3.60;;;;;;;25.44;43.10;98890.78;4976429;28;20311;-48
2022/07/19 08:06:48;;;;;;;9.77;3.80;;;;;;;25.42;43.32;98885.69;4995388;28;20232;-49
2022/07/19 08:09:15;;;;;;;5.85;3.53;;;;;;;25.40;42.84;98886.97;4995959;28;20222;-48
2022/07/19 08:11:42;;;;;;;7.40;3.93;;;;;;;25.46;42.97;98888.72;4997070;28;20309;-48
2022/07/19 08:14:08;;;;;;;6.68;3.85;;;;;;;25.49;42.79;98878.34;4994616;28;20224;-48
2022/07/19 08:16:36;;;;;;;7.90;4.00;;;;;;;25.54;43.20;98887.50;4977372;28;20232;-48
2022/07/19 08:19:03;;;;;;;8.17;3.83;;;;;;;25.61;42.76;98886.28;4997915;28;20223;-48
2022/07/19 08:21:30;;;;;;;9.50;4.03;;;;;;;25.67;43.25;98884.50;4998135;28;20263;-48
2022/07/19 08:23:59;;;;;;;11.65;3.72;;;;;;;25.74;44.23;98877.13;4997180;28;20301;-48
2022/07/19 08:26:25;;;;;;;9.27;3.78;;;;;;;25.86;42.86;98878.88;4994919;28;20212;-49
2022/07/19 08:28:52;;;;;;;9.60;4.38;;;;;;;25.84;43.13;98884.50;4994439;28;20536;-49
2022/07/19 08:31:19;;;;;;;10.95;3.95;;;;;;;25.94;42.97;98881.97;4995934;28;20222;-48
2022/07/19 08:33:46;;;;;;;7.25;3.97;;;;;;;25.98;42.77;98879.59;4993341;28;20239;-48
2022/07/19 08:36:13;;;;;;;13.95;4.18;;;;;;;26.01;43.37;98887.13;4995852;28;20275;-49
2022/07/19 08:38:41;;;;;;;15.30;4.10;;;;;;;26.05;43.21;98880.22;4995847;28;20512;-48
2022/07/19 08:41:09;;;;;;;8.75;3.67;;;;;;;26.15;42.70;98889.50;4996065;28;20451;-48
2022/07/19 08:43:36;;;;;;;6.90;3.47;;;;;;;26.21;42.52;98875.13;4995375;28;20755;-48
2022/07/19 08:46:05;;;;;;;9.90;3.55;;;;;;;26.39;42.17;98879.34;4998613;28;20249;-48
2022/07/19 08:48:34;;;;;;;15.93;3.75;;;;;;;26.55;41.70;98877.66;4997200;28;20210;-48
2022/07/19 08:51:02;;;;;;;6.55;3.50;;;;;;;26.60;42.03;98885.75;4999787;28;20195;-48
2022/07/19 08:53:31;;;;;;;12.63;3.90;;;;;;;26.80;42.16;98885.19;5002918;28;20264;-48
2022/07/19 08:55:59;;;;;;;10.25;3.90;;;;;;;26.82;41.89;98890.31;5000831;28;20201;-47
2022/07/19 08:58:27;;;;;;;10.13;3.70;;;;;;;26.75;41.32;98889.66;4999092;28;20584;-48
2022/07/19 09:00:54;;;;;;;11.55;4.25;;;;;;;26.89;41.47;98887.44;4995289;28;20323;-48
2022/07/19 09:03:22;;;;;;;9.10;3.95;;;;;;;27.02;41.51;98892.41;4990279;28;20260;-48
2022/07/19 09:06:03;;;;;;;8.50;3.80;;;;;;;27.02;40.95;98891.59;4979263;28;20211;-48
2022/07/19 09:08:30;;;;;;;8.82;3.55;;;;;;;27.16;41.02;98892.78;4997599;28;20278;-48
2022/07/19 09:11:33;;;;;;;10.20;4.70;;;;;;;27.25;40.06;98893.13;4994277;28;20282;-48
2022/07/19 09:14:09;;;;;;;12.15;4.03;;;;;;;27.39;40.56;98885.50;4982420;28;20211;-48
2022/07/19 09:16:53;;;;;;;13.10;3.78;;;;;;;27.52;40.77;98886.97;5007426;28;20545;-48
2022/07/19 09:19:20;;;;;;;10.65;4.00;;;;;;;27.63;39.70;98891.34;5000023;28;20843;-48
2022/07/19 09:21:56;;;;;;;10.25;3.60;;;;;;;27.56;39.79;98888.06;4975969;28;20207;-48
2022/07/19 09:24:24;;;;;;;8.90;3.42;;;;;;;27.71;40.03;98884.66;5001092;28;20281;-48
2022/07/19 09:26:56;;;;;;;13.82;4.70;;;;;;;27.82;38.95;98881.00;4999751;28;20227;-47
2022/07/19 09:29:25;;;;;;;9.43;3.90;;;;;;;27.84;39.96;98881.53;4991403;28;20566;-48
2022/07/19 09:31:59;;;;;;;14.82;4.47;;;;;;;27.93;40.33;98881.88;5002706;28;20191;-47
2022/07/19 09:34:30;;;;;;;18.65;4.70;;;;;;;27.94;39.62;98877.31;5007162;28;20617;-47
2022/07/19 09:37:09;;;;;;;6.50;3.75;;;;;;;28.12;39.18;98878.72;5007582;28;20685;-47
2022/07/19 09:39:39;;;;;;;11.93;3.97;;;;;;;28.16;39.51;98877.19;5008162;28;20215;-47
2022/07/19 09:42:05;;;;;;;10.82;4.30;;;;;;;28.27;39.23;98876.16;4988474;28;20202;-48
2022/07/19 09:44:34;;;;;;;5.93;4.05;;;;;;;28.34;39.51;98875.13;4988407;28;20200;-48
2022/07/19 09:47:01;;;;;;;11.70;4.00;;;;;;;28.50;39.02;98866.06;5006905;28;20600;-47
2022/07/19 09:49:28;;;;;;;10.30;3.70;;;;;;;28.57;38.31;98868.50;5007324;28;20250;-48
2022/07/19 09:51:56;;;;;;;8.13;3.40;;;;;;;28.72;38.32;98873.91;5004783;28;20312;-48
2022/07/19 09:54:27;;;;;;;7.47;3.72;;;;;;;28.81;38.43;98871.53;4996838;28;20204;-47
2022/07/19 09:56:56;;;;;;;11.90;3.95;;;;;;;28.89;38.21;98864.03;5007576;28;20256;-48
2022/07/19 09:59:24;;;;;;;6.18;3.35;;;;;;;29.04;36.71;98871.31;4991268;28;20200;-47
2022/07/19 10:01:54;;;;;;;11.23;3.38;;;;;;;29.16;37.12;98859.22;4993969;28;20767;-47
2022/07/19 10:04:23;;;;;;;6.18;3.50;;;;;;;29.24;36.24;98860.56;4987781;28;20225;-47
2022/07/19 10:06:52;;;;;;;7.93;3.85;;;;;;;29.41;36.59;98856.84;5007655;28;20203;-48
2022/07/19 10:09:22;;;;;;;8.02;3.65;;;;;;;29.56;35.67;98854.13;4981586;28;20240;-48
2022/07/19 10:11:49;;;;;;;5.88;3.38;;;;;;;29.69;36.01;98843.88;4998998;28;20209;-48
2022/07/19 10:14:16;;;;;;;7.40;3.40;;;;;;;29.82;35.51;98840.63;4994621;28;20697;-48
2022/07/19 10:17:15;;;;;;;12.10;4.40;;;;;;;29.96;36.05;98835.47;4981231;28;20292;-47
2022/07/19 10:19:44;;;;;;;15.45;3.70;;;;;;;30.11;35.25;98831.16;5006365;28;20212;-48
2022/07/19 10:22:12;;;;;;;5.78;4.05;;;;;;;30.17;35.15;98824.66;5007506;28;20200;-48
2022/07/19 10:24:48;;;;;;;12.35;3.80;;;;;;;30.29;35.29;98821.66;5003088;28;20288;-48
2022/07/19 10:27:16;;;;;;;7.03;3.78;;;;;;;30.45;34.67;98823.19;4987705;28;20272;-48
2022/07/19 10:29:43;;;;;;;9.48;3.30;;;;;;;30.54;33.99;98815.31;4995158;28;20208;-48
2022/07/19 10:32:13;;;;;;;9.70;3.45;;;;;;;30.71;33.56;98808.78;5002036;28;20201;-48
2022/07/19 10:34:41;;;;;;;11.57;3.42;;;;;;;30.87;32.60;98799.50;4994011;28;20193;-48
2022/07/19 10:37:09;;;;;;;11.15;3.15;;;;;;;30.94;33.14;98801.84;5006404;28;20315;-48
2022/07/19 10:39:37;;;;;;;5.65;3.25;;;;;;;31.00;32.37;98805.34;5001732;28;20192;-48
2022/07/19 10:42:09;;;;;;;6.85;3.88;;;;;;;31.13;32.44;98804.69;4987641;28;20197;-48
2022/07/19 10:45:13;;;;;;;8.50;3.15;;;;;;;31.26;32.49;98799.75;5001337;28;20204;-48
2022/07/19 10:48:05;;;;;;;4.85;2.92;;;;;;;31.39;32.47;98799.06;4993140;28;20239;-48
2022/07/19 10:50:59;;;;;;;3.80;2.65;;;;;;;31.52;31.15;98797.59;4997555;28;20211;-48
2022/07/19 10:53:55;;;;;;;4.82;3.03;;;;;;;31.66;31.59;98793.13;4982567;28;20233;-48
2022/07/19 10:56:25;;;;;;;8.88;3.22;;;;;;;31.80;30.25;98779.00;5001617;28;20607;-48
2022/07/19 10:58:54;;;;;;;9.75;3.15;;;;;;;31.86;28.42;98775.09;4999815;28;20212;-48
2022/07/19 11:01:23;;;;;;;7.32;3.22;;;;;;;31.99;27.97;98770.09;4991570;28;20217;-48
2022/07/19 11:04:33;;;;;;;8.50;3.28;;;;;;;32.19;27.19;98763.66;4992466;28;20239;-48
2022/07/19 11:07:15;;;;;;;4.88;2.80;;;;;;;32.47;27.63;98753.81;5000120;28;20255;-48
2022/07/19 11:09:47;;;;;;;3.75;2.72;;;;;;;32.64;26.54;98760.59;4996677;28;20336;-48
2022/07/19 11:12:25;;;;;;;4.28;2.90;;;;;;;32.80;26.01;98758.44;4997920;28;20706;-48
2022/07/19 11:14:52;;;;;;;6.97;2.42;;;;;;;32.93;24.62;98756.88;4977790;28;20208;-48
2022/07/19 11:17:37;;;;;;;6.00;2.60;;;;;;;33.07;23.80;98743.41;4993352;28;20585;-48
2022/07/19 11:20:10;;;;;;;6.78;2.67;;;;;;;33.20;23.31;98739.13;4998445;28;20196;-48
2022/07/19 11:22:40;;;;;;;6.55;2.70;;;;;;;33.30;24.24;98730.81;4995311;28;20209;-49
2022/07/19 11:25:09;;;;;;;6.30;2.80;;;;;;;33.30;23.48;98733.53;4977953;28;20197;-48
2022/07/19 11:27:36;;;;;;;3.47;2.55;;;;;;;33.47;23.15;98726.75;5001543;28;20193;-48
2022/07/19 11:30:07;;;;;;;6.05;2.50;;;;;;;33.66;23.61;98719.31;4996879;28;20197;-48
2022/07/19 11:32:34;;;;;;;6.55;2.47;;;;;;;33.88;22.00;98723.22;4990440;28;20245;-48
2022/07/19 11:35:05;;;;;;;4.95;2.35;;;;;;;34.07;22.20;98720.38;4993700;28;20638;-47
2022/07/19 11:37:38;;;;;;;6.22;2.75;;;;;;;34.10;20.75;98721.66;5001054;28;20213;-48
2022/07/19 11:40:24;;;;;;;5.30;2.38;;;;;;;34.15;17.77;98708.00;5002576;28;20244;-48